sensor_id;sensor_type;location;lat;lon;timestamp;pressure;altitude;pressure_sealevel;temperature;humidity
60427;BME280;46274;47.168;27.604;2023-11-21T00:03:43;99221.66;;;2.63;100.00
60427;BME280;46274;47.168;27.604;2023-11-21T00:09:45;99281.47;;;3.09;99.08
60427;BME280;46274;47.168;27.604;2023-11-21T00:15:48;99239.66;;;2.71;100.00
60427;BME280;46274;47.168;27.604;2023-11-21T00:21:53;99273.44;;;2.81;100.00
60427;BME280;46274;47.168;27.604;2023-11-21T00:27:55;99200.56;;;2.23;100.00
60427;BME280;46274;47.168;27.604;2023-11-21T00:33:57;99147.00;;;2.14;100.00
60427;BME280;46274;47.168;27.604;2023-11-21T00:40:00;99248.88;;;2.86;98.85
60427;BME280;46274;47.168;27.604;2023-11-21T00:46:06;99257.13;;;2.65;99.30
60427;BME280;46274;47.168;27.604;2023-11-21T00:52:09;99031.53;;;1.26;100.00
60427;BME280;46274;47.168;27.604;2023-11-21T00:58:11;99169.34;;;2.23;99.82
60427;BME280;46274;47.168;27.604;2023-11-21T01:04:14;99258.28;;;2.62;100.00
60427;BME280;46274;47.168;27.604;2023-11-21T01:10:18;99305.53;;;2.81;100.00
60427;BME280;46274;47.168;27.604;2023-11-21T01:16:20;99261.19;;;2.79;100.00
60427;BME280;46274;47.168;27.604;2023-11-21T01:22:22;99303.72;;;3.10;97.91
60427;BME280;46274;47.168;27.604;2023-11-21T01:28:27;99275.00;;;2.74;99.53
60427;BME280;46274;47.168;27.604;2023-11-21T01:34:30;99145.59;;;2.10;99.70
60427;BME280;46274;47.168;27.604;2023-11-21T01:40:33;99105.81;;;1.60;100.00
60427;BME280;46274;47.168;27.604;2023-11-21T01:46:36;99248.69;;;2.70;99.98
60427;BME280;46274;47.168;27.604;2023-11-21T01:52:40;99293.97;;;3.18;97.38
60427;BME280;46274;47.168;27.604;2023-11-21T01:58:44;99287.91;;;3.16;97.39
60427;BME280;46274;47.168;27.604;2023-11-21T02:04:49;99281.06;;;3.04;99.24
60427;BME280;46274;47.168;27.604;2023-11-21T02:10:51;99282.59;;;3.06;98.43
60427;BME280;46274;47.168;27.604;2023-11-21T02:16:55;99278.75;;;3.19;97.90
60427;BME280;46274;47.168;27.604;2023-11-21T02:22:59;99266.97;;;3.02;98.35
60427;BME280;46274;47.168;27.604;2023-11-21T02:29:02;99248.88;;;2.58;100.00
60427;BME280;46274;47.168;27.604;2023-11-21T02:35:06;99256.78;;;2.88;99.46
60427;BME280;46274;47.168;27.604;2023-11-21T02:41:10;99293.69;;;3.12;98.87
60427;BME280;46274;47.168;27.604;2023-11-21T02:47:13;99217.19;;;2.64;98.44
60427;BME280;46274;47.168;27.604;2023-11-21T02:53:15;99254.63;;;2.64;100.00
60427;BME280;46274;47.168;27.604;2023-11-21T02:59:18;99105.66;;;2.09;98.24
60427;BME280;46274;47.168;27.604;2023-11-21T03:05:21;99195.41;;;2.49;99.59
60427;BME280;46274;47.168;27.604;2023-11-21T03:11:24;99281.41;;;2.91;100.00
60427;BME280;46274;47.168;27.604;2023-11-21T03:17:26;99274.25;;;2.82;100.00
60427;BME280;46274;47.168;27.604;2023-11-21T03:23:29;99136.84;;;1.61;100.00
60427;BME280;46274;47.168;27.604;2023-11-21T03:29:31;99244.38;;;2.49;100.00
60427;BME280;46274;47.168;27.604;2023-11-21T03:35:33;99239.25;;;2.18;100.00
60427;BME280;46274;47.168;27.604;2023-11-21T03:41:35;99117.50;;;1.40;100.00
60427;BME280;46274;47.168;27.604;2023-11-21T03:47:37;99149.38;;;1.51;100.00
60427;BME280;46274;47.168;27.604;2023-11-21T03:53:39;99265.97;;;2.18;100.00
60427;BME280;46274;47.168;27.604;2023-11-21T03:59:41;99271.56;;;2.35;100.00
60427;BME280;46274;47.168;27.604;2023-11-21T04:05:43;99269.78;;;2.73;100.00
60427;BME280;46274;47.168;27.604;2023-11-21T04:11:45;99170.78;;;2.08;100.00
60427;BME280;46274;47.168;27.604;2023-11-21T04:17:48;99111.69;;;1.73;100.00
60427;BME280;46274;47.168;27.604;2023-11-21T04:23:50;99127.41;;;1.86;100.00
60427;BME280;46274;47.168;27.604;2023-11-21T04:29:53;99313.59;;;2.52;100.00
60427;BME280;46274;47.168;27.604;2023-11-21T04:35:55;99319.66;;;2.64;100.00
60427;BME280;46274;47.168;27.604;2023-11-21T04:41:58;99222.56;;;1.97;100.00
60427;BME280;46274;47.168;27.604;2023-11-21T04:48:00;99181.19;;;2.11;100.00
60427;BME280;46274;47.168;27.604;2023-11-21T04:54:03;99295.59;;;2.92;100.00
60427;BME280;46274;47.168;27.604;2023-11-21T05:00:05;99138.75;;;1.98;100.00
60427;BME280;46274;47.168;27.604;2023-11-21T05:06:12;99339.03;;;3.23;100.00
60427;BME280;46274;47.168;27.604;2023-11-21T05:12:13;99260.47;;;2.87;99.22
60427;BME280;46274;47.168;27.604;2023-11-21T05:18:16;99341.38;;;3.36;98.52
60427;BME280;46274;47.168;27.604;2023-11-21T05:24:18;99288.97;;;2.58;100.00
60427;BME280;46274;47.168;27.604;2023-11-21T05:30:21;99338.22;;;3.13;100.00
60427;BME280;46274;47.168;27.604;2023-11-21T05:36:24;99145.06;;;2.07;100.00
60427;BME280;46274;47.168;27.604;2023-11-21T05:42:26;99302.16;;;2.79;100.00
60427;BME280;46274;47.168;27.604;2023-11-21T05:48:29;99345.31;;;2.94;100.00
60427;BME280;46274;47.168;27.604;2023-11-21T05:54:31;99375.63;;;3.32;100.00
60427;BME280;46274;47.168;27.604;2023-11-21T06:00:33;99375.09;;;3.19;100.00
60427;BME280;46274;47.168;27.604;2023-11-21T06:06:35;99384.53;;;3.23;100.00
60427;BME280;46274;47.168;27.604;2023-11-21T06:12:38;99391.03;;;3.20;100.00
60427;BME280;46274;47.168;27.604;2023-11-21T06:18:42;99393.72;;;3.20;100.00
60427;BME280;46274;47.168;27.604;2023-11-21T06:24:45;99335.38;;;2.77;100.00
60427;BME280;46274;47.168;27.604;2023-11-21T06:30:48;99384.97;;;3.18;100.00
60427;BME280;46274;47.168;27.604;2023-11-21T06:36:51;99391.19;;;3.09;100.00
60427;BME280;46274;47.168;27.604;2023-11-21T06:42:54;99355.91;;;2.86;100.00
60427;BME280;46274;47.168;27.604;2023-11-21T06:48:56;99409.50;;;3.04;100.00
60427;BME280;46274;47.168;27.604;2023-11-21T06:54:59;99273.25;;;2.46;100.00
60427;BME280;46274;47.168;27.604;2023-11-21T07:01:01;99263.38;;;2.56;100.00
60427;BME280;46274;47.168;27.604;2023-11-21T07:07:04;99403.28;;;3.23;100.00
60427;BME280;46274;47.168;27.604;2023-11-21T07:13:07;99425.84;;;3.48;100.00
60427;BME280;46274;47.168;27.604;2023-11-21T07:19:13;99355.88;;;2.96;100.00
60427;BME280;46274;47.168;27.604;2023-11-21T07:25:15;99409.03;;;3.28;100.00
60427;BME280;46274;47.168;27.604;2023-11-21T07:31:18;99260.84;;;2.45;100.00
60427;BME280;46274;47.168;27.604;2023-11-21T07:37:24;99396.97;;;3.52;100.00
60427;BME280;46274;47.168;27.604;2023-11-21T07:43:27;99423.22;;;3.76;100.00
60427;BME280;46274;47.168;27.604;2023-11-21T07:49:29;99339.28;;;2.92;100.00
60427;BME280;46274;47.168;27.604;2023-11-21T07:55:33;99418.97;;;3.45;100.00
60427;BME280;46274;47.168;27.604;2023-11-21T08:01:35;99204.34;;;2.30;100.00
60427;BME280;46274;47.168;27.604;2023-11-21T08:07:38;99433.13;;;3.93;100.00
60427;BME280;46274;47.168;27.604;2023-11-21T08:13:42;99341.63;;;3.05;100.00
60427;BME280;46274;47.168;27.604;2023-11-21T08:19:44;99409.69;;;3.77;100.00
60427;BME280;46274;47.168;27.604;2023-11-21T08:25:52;99435.53;;;4.14;100.00
60427;BME280;46274;47.168;27.604;2023-11-21T08:31:54;99387.88;;;4.08;100.00
60427;BME280;46274;47.168;27.604;2023-11-21T08:37:57;99413.81;;;4.35;100.00
60427;BME280;46274;47.168;27.604;2023-11-21T08:43:59;99233.84;;;3.13;100.00
60427;BME280;46274;47.168;27.604;2023-11-21T08:50:02;99411.38;;;4.59;100.00
60427;BME280;46274;47.168;27.604;2023-11-21T08:56:06;99408.50;;;4.61;100.00
60427;BME280;46274;47.168;27.604;2023-11-21T09:02:09;99403.34;;;4.86;100.00
60427;BME280;46274;47.168;27.604;2023-11-21T09:08:11;98977.53;;;2.35;100.00
60427;BME280;46274;47.168;27.604;2023-11-21T09:14:14;99394.34;;;4.95;100.00
60427;BME280;46274;47.168;27.604;2023-11-21T09:20:18;99396.06;;;5.22;99.93
60427;BME280;46274;47.168;27.604;2023-11-21T09:26:27;99380.84;;;5.39;99.98
60427;BME280;46274;47.168;27.604;2023-11-21T09:32:29;99271.41;;;4.72;100.00
60427;BME280;46274;47.168;27.604;2023-11-21T09:38:32;99357.00;;;5.36;98.58
60427;BME280;46274;47.168;27.604;2023-11-21T09:45:17;99245.41;;;4.65;96.88
60427;BME280;46274;47.168;27.604;2023-11-21T09:51:27;99388.38;;;5.69;97.28
60427;BME280;46274;47.168;27.604;2023-11-21T09:57:32;99207.97;;;4.97;96.59
60427;BME280;46274;47.168;27.604;2023-11-21T10:03:39;99391.22;;;5.94;95.39
60427;BME280;46274;47.168;27.604;2023-11-21T10:09:41;99378.50;;;6.29;95.08
60427;BME280;46274;47.168;27.604;2023-11-21T10:15:49;99375.00;;;6.61;95.38
60427;BME280;46274;47.168;27.604;2023-11-21T10:21:53;99373.47;;;6.83;94.94
60427;BME280;46274;47.168;27.604;2023-11-21T10:28:04;99238.28;;;5.99;92.88
60427;BME280;46274;47.168;27.604;2023-11-21T10:40:14;99385.53;;;7.20;89.97
60427;BME280;46274;47.168;27.604;2023-11-21T10:46:17;99328.22;;;6.21;88.20
60427;BME280;46274;47.168;27.604;2023-11-21T10:52:28;99046.44;;;5.43;88.32
60427;BME280;46274;47.168;27.604;2023-11-21T10:58:31;99365.81;;;7.36;85.79
60427;BME280;46274;47.168;27.604;2023-11-21T11:04:40;99409.28;;;7.80;86.66
60427;BME280;46274;47.168;27.604;2023-11-21T11:11:00;99266.66;;;7.15;84.54
60427;BME280;46274;47.168;27.604;2023-11-21T11:17:10;99369.59;;;7.58;83.25
60427;BME280;46274;47.168;27.604;2023-11-21T11:23:46;99402.28;;;8.25;84.31
60427;BME280;46274;47.168;27.604;2023-11-21T11:42:38;99354.25;;;8.21;83.31
60427;BME280;46274;47.168;27.604;2023-11-21T11:48:42;99389.31;;;8.21;80.69
60427;BME280;46274;47.168;27.604;2023-11-21T11:54:52;99385.19;;;8.41;80.32
60427;BME280;46274;47.168;27.604;2023-11-21T12:01:06;99388.44;;;8.28;81.60
60427;BME280;46274;47.168;27.604;2023-11-21T12:07:18;99383.34;;;8.42;81.49
60427;BME280;46274;47.168;27.604;2023-11-21T12:13:28;99353.72;;;8.25;80.65
60427;BME280;46274;47.168;27.604;2023-11-21T12:19:31;99356.19;;;8.35;80.72
60427;BME280;46274;47.168;27.604;2023-11-21T12:25:45;99354.72;;;8.56;80.77
60427;BME280;46274;47.168;27.604;2023-11-21T12:31:55;99344.22;;;8.61;78.75
60427;BME280;46274;47.168;27.604;2023-11-21T12:37:59;99304.03;;;8.43;78.76
60427;BME280;46274;47.168;27.604;2023-11-21T12:45:06;99366.66;;;8.61;81.40
60427;BME280;46274;47.168;27.604;2023-11-21T12:52:12;99331.47;;;8.69;81.15
60427;BME280;46274;47.168;27.604;2023-11-21T13:05:51;99385.19;;;9.02;80.36
60427;BME280;46274;47.168;27.604;2023-11-21T13:12:02;99183.94;;;7.55;80.47
60427;BME280;46274;47.168;27.604;2023-11-21T13:18:31;99247.00;;;8.00;81.10
60427;BME280;46274;47.168;27.604;2023-11-21T13:32:27;99164.00;;;7.41;81.15
60427;BME280;46274;47.168;27.604;2023-11-21T13:38:56;99394.16;;;8.65;82.46
60427;BME280;46274;47.168;27.604;2023-11-21T13:45:04;99397.53;;;8.82;82.41
60427;BME280;46274;47.168;27.604;2023-11-21T13:51:21;99412.75;;;8.60;82.83
60427;BME280;46274;47.168;27.604;2023-11-21T13:57:44;99413.50;;;8.45;83.58
60427;BME280;46274;47.168;27.604;2023-11-21T14:04:15;99029.75;;;5.97;85.57
60427;BME280;46274;47.168;27.604;2023-11-21T14:10:47;99163.09;;;6.86;85.16
60427;BME280;46274;47.168;27.604;2023-11-21T14:17:02;99410.38;;;7.94;87.21
60427;BME280;46274;47.168;27.604;2023-11-21T14:23:23;99420.38;;;7.85;88.59
60427;BME280;46274;47.168;27.604;2023-11-21T14:29:26;99270.38;;;7.14;87.12
60427;BME280;46274;47.168;27.604;2023-11-21T14:35:30;99367.09;;;7.48;88.28
60427;BME280;46274;47.168;27.604;2023-11-21T14:41:41;99412.19;;;7.71;88.74
60427;BME280;46274;47.168;27.604;2023-11-21T14:47:52;99365.34;;;7.63;87.60
60427;BME280;46274;47.168;27.604;2023-11-21T14:54:09;99327.47;;;7.09;88.35
60427;BME280;46274;47.168;27.604;2023-11-21T15:00:14;99273.34;;;6.80;87.81
60427;BME280;46274;47.168;27.604;2023-11-21T15:06:38;99423.56;;;7.41;88.38
60427;BME280;46274;47.168;27.604;2023-11-21T15:12:45;99250.72;;;6.33;87.99
60427;BME280;46274;47.168;27.604;2023-11-21T15:19:10;98939.66;;;4.30;88.65
60427;BME280;46274;47.168;27.604;2023-11-21T15:25:30;99296.78;;;6.22;91.34
60427;BME280;46274;47.168;27.604;2023-11-21T15:31:33;99436.56;;;7.13;90.61
60427;BME280;46274;47.168;27.604;2023-11-21T15:37:46;99441.44;;;7.02;90.96
60427;BME280;46274;47.168;27.604;2023-11-21T15:43:59;99075.59;;;4.80;90.06
60427;BME280;46274;47.168;27.604;2023-11-21T15:50:09;99456.56;;;7.35;89.05
60427;BME280;46274;47.168;27.604;2023-11-21T15:56:20;99456.25;;;7.22;89.11
60427;BME280;46274;47.168;27.604;2023-11-21T16:02:23;99402.41;;;6.48;92.91
60427;BME280;46274;47.168;27.604;2023-11-21T16:08:39;99244.09;;;5.62;91.15
60427;BME280;46274;47.168;27.604;2023-11-21T16:14:42;99216.50;;;5.43;92.09
60427;BME280;46274;47.168;27.604;2023-11-21T16:20:52;99453.22;;;7.17;90.73
60427;BME280;46274;47.168;27.604;2023-11-21T16:27:14;99467.00;;;7.47;87.44
60427;BME280;46274;47.168;27.604;2023-11-21T16:33:21;99474.03;;;6.41;96.53
60427;BME280;46274;47.168;27.604;2023-11-21T16:39:38;99468.28;;;6.28;97.60
60427;BME280;46274;47.168;27.604;2023-11-21T16:45:47;99338.38;;;5.85;95.28
60427;BME280;46274;47.168;27.604;2023-11-21T16:52:02;99478.47;;;6.83;92.25
60427;BME280;46274;47.168;27.604;2023-11-21T16:58:25;99483.03;;;6.99;90.37
60427;BME280;46274;47.168;27.604;2023-11-21T17:04:42;99415.75;;;5.99;93.64
60427;BME280;46274;47.168;27.604;2023-11-21T17:10:50;99325.34;;;5.47;93.36
60427;BME280;46274;47.168;27.604;2023-11-21T17:17:06;99479.78;;;6.63;91.86
60427;BME280;46274;47.168;27.604;2023-11-21T17:23:18;99448.81;;;6.42;93.63
60427;BME280;46274;47.168;27.604;2023-11-21T17:29:21;99386.34;;;6.14;91.77
60427;BME280;46274;47.168;27.604;2023-11-21T17:35:23;99338.44;;;6.01;88.79
60427;BME280;46274;47.168;27.604;2023-11-21T17:41:26;99266.94;;;5.58;87.68
60427;BME280;46274;47.168;27.604;2023-11-21T17:47:36;99454.22;;;6.59;87.87
60427;BME280;46274;47.168;27.604;2023-11-21T17:53:41;99350.88;;;5.17;92.73
60427;BME280;46274;47.168;27.604;2023-11-21T17:59:44;99265.41;;;4.26;98.99
60427;BME280;46274;47.168;27.604;2023-11-21T18:06:05;99487.47;;;5.64;100.00
60427;BME280;46274;47.168;27.604;2023-11-21T18:12:54;99489.44;;;6.23;92.14
60427;BME280;46274;47.168;27.604;2023-11-21T18:19:10;99104.31;;;3.85;90.26
60427;BME280;46274;47.168;27.604;2023-11-21T18:25:16;99499.97;;;4.86;100.00
60427;BME280;46274;47.168;27.604;2023-11-21T18:31:32;99146.88;;;2.53;100.00
60427;BME280;46274;47.168;27.604;2023-11-21T18:37:48;99360.97;;;4.71;100.00
60427;BME280;46274;47.168;27.604;2023-11-21T18:43:54;99097.03;;;3.52;93.61
60427;BME280;46274;47.168;27.604;2023-11-21T18:50:05;99417.50;;;5.14;94.56
60427;BME280;46274;47.168;27.604;2023-11-21T18:56:26;99498.50;;;5.87;90.98
60427;BME280;46274;47.168;27.604;2023-11-21T19:02:41;99496.84;;;5.60;92.72
60427;BME280;46274;47.168;27.604;2023-11-21T19:08:45;99496.25;;;5.75;90.52
60427;BME280;46274;47.168;27.604;2023-11-21T19:14:55;99513.78;;;4.27;100.00
60427;BME280;46274;47.168;27.604;2023-11-21T19:20:57;99515.75;;;4.25;100.00
60427;BME280;46274;47.168;27.604;2023-11-21T19:27:00;99521.75;;;4.65;100.00
60427;BME280;46274;47.168;27.604;2023-11-21T19:33:12;99377.75;;;3.56;100.00
60427;BME280;46274;47.168;27.604;2023-11-21T19:39:30;99519.28;;;5.25;95.64
60427;BME280;46274;47.168;27.604;2023-11-21T19:45:33;99357.31;;;3.55;99.67
60427;BME280;46274;47.168;27.604;2023-11-21T19:51:42;99528.59;;;4.04;100.00
60427;BME280;46274;47.168;27.604;2023-11-21T19:57:46;99489.75;;;4.53;100.00
60427;BME280;46274;47.168;27.604;2023-11-21T20:03:51;99521.09;;;4.35;99.40
60427;BME280;46274;47.168;27.604;2023-11-21T20:09:54;99379.47;;;3.20;100.00
60427;BME280;46274;47.168;27.604;2023-11-21T20:16:06;99523.75;;;4.63;100.00
60427;BME280;46274;47.168;27.604;2023-11-21T20:22:12;99508.56;;;4.71;94.84
60427;BME280;46274;47.168;27.604;2023-11-21T20:28:20;99318.50;;;2.76;100.00
60427;BME280;46274;47.168;27.604;2023-11-21T20:34:26;99534.88;;;4.12;100.00
60427;BME280;46274;47.168;27.604;2023-11-21T20:40:42;99400.78;;;3.77;97.65
60427;BME280;46274;47.168;27.604;2023-11-21T20:46:45;99529.00;;;4.72;93.83
60427;BME280;46274;47.168;27.604;2023-11-21T20:53:07;99353.63;;;2.91;97.15
60427;BME280;46274;47.168;27.604;2023-11-21T20:59:12;99496.28;;;3.68;98.57
60427;BME280;46274;47.168;27.604;2023-11-21T21:05:14;99537.78;;;4.29;97.79
60427;BME280;46274;47.168;27.604;2023-11-21T21:11:22;99532.72;;;4.44;93.96
60427;BME280;46274;47.168;27.604;2023-11-21T21:17:24;99397.63;;;2.50;99.27
60427;BME280;46274;47.168;27.604;2023-11-21T21:23:34;99521.03;;;3.42;100.00
60427;BME280;46274;47.168;27.604;2023-11-21T21:29:54;99333.78;;;2.17;95.75
60427;BME280;46274;47.168;27.604;2023-11-21T21:36:01;99523.03;;;3.78;94.64
60427;BME280;46274;47.168;27.604;2023-11-21T21:42:06;99481.03;;;2.24;100.00
60427;BME280;46274;47.168;27.604;2023-11-21T21:48:16;99289.88;;;1.62;100.00
60427;BME280;46274;47.168;27.604;2023-11-21T21:54:27;99578.38;;;3.30;98.92
60427;BME280;46274;47.168;27.604;2023-11-21T22:00:33;99488.50;;;3.27;96.47
60427;BME280;46274;47.168;27.604;2023-11-21T22:06:44;99142.03;;;0.95;96.92
60427;BME280;46274;47.168;27.604;2023-11-21T22:12:47;99549.66;;;3.89;93.33
60427;BME280;46274;47.168;27.604;2023-11-21T22:19:04;99472.78;;;2.56;97.63
60427;BME280;46274;47.168;27.604;2023-11-21T22:25:16;99461.50;;;2.33;100.00
60427;BME280;46274;47.168;27.604;2023-11-21T22:31:19;99540.88;;;3.49;96.26
60427;BME280;46274;47.168;27.604;2023-11-21T22:37:25;99541.13;;;3.66;92.84
60427;BME280;46274;47.168;27.604;2023-11-21T22:43:32;99311.53;;;2.27;91.83
60427;BME280;46274;47.168;27.604;2023-11-21T22:49:35;99540.88;;;3.59;92.01
60427;BME280;46274;47.168;27.604;2023-11-21T22:55:37;99551.94;;;2.98;94.24
60427;BME280;46274;47.168;27.604;2023-11-21T23:01:41;99552.19;;;3.43;92.15
60427;BME280;46274;47.168;27.604;2023-11-21T23:07:46;99557.28;;;3.08;96.77
60427;BME280;46274;47.168;27.604;2023-11-21T23:13:49;99528.28;;;1.31;100.00
60427;BME280;46274;47.168;27.604;2023-11-21T23:19:52;99577.78;;;2.58;100.00
60427;BME280;46274;47.168;27.604;2023-11-21T23:25:54;99523.41;;;2.38;97.79
60427;BME280;46274;47.168;27.604;2023-11-21T23:31:57;99500.34;;;2.47;96.49
60427;BME280;46274;47.168;27.604;2023-11-21T23:38:04;99428.47;;;1.74;95.92
60427;BME280;46274;47.168;27.604;2023-11-21T23:44:12;99539.66;;;2.76;95.50
60427;BME280;46274;47.168;27.604;2023-11-21T23:50:29;99562.03;;;2.94;94.88
60427;BME280;46274;47.168;27.604;2023-11-21T23:56:34;99426.22;;;1.80;96.84
